sensor_id;sensor_type;location;lat;lon;timestamp;P1;durP1;ratioP1;P2;durP2;ratioP2
30068;SDS011;16894;49.456;10.644;2023-09-07T00:01:43;22.37;;;20.77;;
30068;SDS011;16894;49.456;10.644;2023-09-07T00:04:09;22.50;;;21.00;;
30068;SDS011;16894;49.456;10.644;2023-09-07T00:06:35;26.30;;;24.70;;
30068;SDS011;16894;49.456;10.644;2023-09-07T00:09:02;25.43;;;23.73;;
30068;SDS011;16894;49.456;10.644;2023-09-07T00:11:28;27.35;;;25.40;;
30068;SDS011;16894;49.456;10.644;2023-09-07T00:16:20;22.40;;;20.90;;
30068;SDS011;16894;49.456;10.644;2023-09-07T00:18:45;28.90;;;26.97;;
30068;SDS011;16894;49.456;10.644;2023-09-07T00:21:11;30.50;;;28.33;;
30068;SDS011;16894;49.456;10.644;2023-09-07T00:23:37;34.03;;;31.63;;
30068;SDS011;16894;49.456;10.644;2023-09-07T00:26:02;35.73;;;33.37;;
30068;SDS011;16894;49.456;10.644;2023-09-07T00:28:28;36.92;;;34.53;;
30068;SDS011;16894;49.456;10.644;2023-09-07T00:30:54;37.73;;;35.20;;
30068;SDS011;16894;49.456;10.644;2023-09-07T00:33:20;33.80;;;31.53;;
30068;SDS011;16894;49.456;10.644;2023-09-07T00:35:45;34.97;;;32.70;;
30068;SDS011;16894;49.456;10.644;2023-09-07T00:38:11;36.47;;;34.07;;
30068;SDS011;16894;49.456;10.644;2023-09-07T00:40:37;38.58;;;36.05;;
30068;SDS011;16894;49.456;10.644;2023-09-07T00:43:02;37.03;;;34.60;;
30068;SDS011;16894;49.456;10.644;2023-09-07T00:45:29;35.40;;;33.08;;
30068;SDS011;16894;49.456;10.644;2023-09-07T00:47:55;36.42;;;34.03;;
30068;SDS011;16894;49.456;10.644;2023-09-07T00:50:21;36.63;;;34.30;;
30068;SDS011;16894;49.456;10.644;2023-09-07T00:52:47;42.22;;;39.45;;
30068;SDS011;16894;49.456;10.644;2023-09-07T00:55:13;38.20;;;35.75;;
30068;SDS011;16894;49.456;10.644;2023-09-07T00:57:39;39.28;;;36.33;;
30068;SDS011;16894;49.456;10.644;2023-09-07T01:00:07;35.55;;;33.13;;
30068;SDS011;16894;49.456;10.644;2023-09-07T01:02:34;36.25;;;33.63;;
30068;SDS011;16894;49.456;10.644;2023-09-07T01:05:01;37.45;;;34.80;;
30068;SDS011;16894;49.456;10.644;2023-09-07T01:07:34;38.63;;;35.67;;
30068;SDS011;16894;49.456;10.644;2023-09-07T01:10:05;39.97;;;37.33;;
30068;SDS011;16894;49.456;10.644;2023-09-07T01:12:33;41.38;;;38.72;;
30068;SDS011;16894;49.456;10.644;2023-09-07T01:14:59;45.80;;;42.72;;
30068;SDS011;16894;49.456;10.644;2023-09-07T01:17:25;42.63;;;39.83;;
30068;SDS011;16894;49.456;10.644;2023-09-07T01:19:52;41.10;;;38.30;;
30068;SDS011;16894;49.456;10.644;2023-09-07T01:22:18;43.53;;;40.72;;
30068;SDS011;16894;49.456;10.644;2023-09-07T01:24:48;31.05;;;28.98;;
30068;SDS011;16894;49.456;10.644;2023-09-07T01:27:24;31.56;;;29.50;;
30068;SDS011;16894;49.456;10.644;2023-09-07T01:29:51;30.13;;;28.00;;
30068;SDS011;16894;49.456;10.644;2023-09-07T01:32:17;30.33;;;28.17;;
30068;SDS011;16894;49.456;10.644;2023-09-07T01:34:43;31.87;;;29.80;;
30068;SDS011;16894;49.456;10.644;2023-09-07T01:37:09;28.00;;;26.13;;
30068;SDS011;16894;49.456;10.644;2023-09-07T01:39:35;26.42;;;24.65;;
30068;SDS011;16894;49.456;10.644;2023-09-07T01:42:02;26.33;;;24.40;;
30068;SDS011;16894;49.456;10.644;2023-09-07T01:44:27;25.83;;;23.98;;
30068;SDS011;16894;49.456;10.644;2023-09-07T01:46:54;24.10;;;22.55;;
30068;SDS011;16894;49.456;10.644;2023-09-07T01:49:20;24.67;;;22.77;;
30068;SDS011;16894;49.456;10.644;2023-09-07T01:51:46;23.25;;;21.75;;
30068;SDS011;16894;49.456;10.644;2023-09-07T01:54:12;28.00;;;26.10;;
30068;SDS011;16894;49.456;10.644;2023-09-07T01:56:37;28.57;;;26.20;;
30068;SDS011;16894;49.456;10.644;2023-09-07T01:59:06;33.13;;;30.52;;
30068;SDS011;16894;49.456;10.644;2023-09-07T02:01:31;36.37;;;33.67;;
30068;SDS011;16894;49.456;10.644;2023-09-07T02:04:01;37.03;;;34.58;;
30068;SDS011;16894;49.456;10.644;2023-09-07T02:06:27;31.00;;;28.92;;
30068;SDS011;16894;49.456;10.644;2023-09-07T02:08:53;32.43;;;30.13;;
30068;SDS011;16894;49.456;10.644;2023-09-07T02:11:19;36.08;;;33.42;;
30068;SDS011;16894;49.456;10.644;2023-09-07T02:13:45;34.90;;;32.60;;
30068;SDS011;16894;49.456;10.644;2023-09-07T02:16:11;39.22;;;36.38;;
30068;SDS011;16894;49.456;10.644;2023-09-07T02:18:37;41.10;;;38.37;;
30068;SDS011;16894;49.456;10.644;2023-09-07T02:21:05;49.92;;;46.72;;
30068;SDS011;16894;49.456;10.644;2023-09-07T02:23:31;56.03;;;52.53;;
30068;SDS011;16894;49.456;10.644;2023-09-07T02:25:57;55.47;;;52.00;;
30068;SDS011;16894;49.456;10.644;2023-09-07T02:28:23;48.58;;;45.13;;
30068;SDS011;16894;49.456;10.644;2023-09-07T02:30:50;53.08;;;49.13;;
30068;SDS011;16894;49.456;10.644;2023-09-07T02:33:16;52.50;;;49.03;;
30068;SDS011;16894;49.456;10.644;2023-09-07T02:35:42;45.70;;;42.53;;
30068;SDS011;16894;49.456;10.644;2023-09-07T02:38:08;35.43;;;33.00;;
30068;SDS011;16894;49.456;10.644;2023-09-07T02:40:39;33.77;;;31.47;;
30068;SDS011;16894;49.456;10.644;2023-09-07T02:43:08;38.72;;;36.10;;
30068;SDS011;16894;49.456;10.644;2023-09-07T02:48:00;31.25;;;29.27;;
30068;SDS011;16894;49.456;10.644;2023-09-07T02:50:26;34.67;;;32.27;;
30068;SDS011;16894;49.456;10.644;2023-09-07T02:52:53;36.05;;;33.58;;
30068;SDS011;16894;49.456;10.644;2023-09-07T02:55:19;41.43;;;38.80;;
30068;SDS011;16894;49.456;10.644;2023-09-07T02:57:45;38.58;;;35.80;;
30068;SDS011;16894;49.456;10.644;2023-09-07T03:00:11;46.80;;;43.57;;
30068;SDS011;16894;49.456;10.644;2023-09-07T03:02:37;49.83;;;46.33;;
30068;SDS011;16894;49.456;10.644;2023-09-07T03:05:02;47.17;;;44.10;;
30068;SDS011;16894;49.456;10.644;2023-09-07T03:07:32;43.92;;;40.58;;
30068;SDS011;16894;49.456;10.644;2023-09-07T03:09:58;51.95;;;48.15;;
30068;SDS011;16894;49.456;10.644;2023-09-07T03:12:24;51.30;;;47.92;;
30068;SDS011;16894;49.456;10.644;2023-09-07T03:14:50;49.95;;;46.67;;
30068;SDS011;16894;49.456;10.644;2023-09-07T03:17:16;46.87;;;43.80;;
30068;SDS011;16894;49.456;10.644;2023-09-07T03:19:42;39.15;;;36.08;;
30068;SDS011;16894;49.456;10.644;2023-09-07T03:22:08;36.55;;;34.13;;
30068;SDS011;16894;49.456;10.644;2023-09-07T03:24:34;34.63;;;32.33;;
30068;SDS011;16894;49.456;10.644;2023-09-07T03:27:00;41.33;;;38.63;;
30068;SDS011;16894;49.456;10.644;2023-09-07T03:29:26;47.73;;;44.70;;
30068;SDS011;16894;49.456;10.644;2023-09-07T03:31:51;45.10;;;41.83;;
30068;SDS011;16894;49.456;10.644;2023-09-07T03:34:17;51.57;;;47.63;;
30068;SDS011;16894;49.456;10.644;2023-09-07T03:36:42;50.00;;;40.60;;
30068;SDS011;16894;49.456;10.644;2023-09-07T03:39:08;38.20;;;35.67;;
30068;SDS011;16894;49.456;10.644;2023-09-07T03:44:01;30.77;;;28.38;;
30068;SDS011;16894;49.456;10.644;2023-09-07T03:46:26;34.37;;;32.17;;
30068;SDS011;16894;49.456;10.644;2023-09-07T03:48:52;32.70;;;29.88;;
30068;SDS011;16894;49.456;10.644;2023-09-07T03:51:18;30.73;;;28.57;;
30068;SDS011;16894;49.456;10.644;2023-09-07T03:53:44;38.40;;;35.83;;
30068;SDS011;16894;49.456;10.644;2023-09-07T03:56:10;35.08;;;32.75;;
30068;SDS011;16894;49.456;10.644;2023-09-07T03:58:36;43.40;;;40.60;;
30068;SDS011;16894;49.456;10.644;2023-09-07T04:01:02;35.03;;;32.60;;
30068;SDS011;16894;49.456;10.644;2023-09-07T04:03:27;40.07;;;37.17;;
30068;SDS011;16894;49.456;10.644;2023-09-07T04:05:53;34.87;;;32.33;;
30068;SDS011;16894;49.456;10.644;2023-09-07T04:08:19;32.67;;;30.40;;
30068;SDS011;16894;49.456;10.644;2023-09-07T04:10:45;37.05;;;34.53;;
30068;SDS011;16894;49.456;10.644;2023-09-07T04:13:10;31.37;;;29.03;;
30068;SDS011;16894;49.456;10.644;2023-09-07T04:15:42;39.77;;;36.07;;
30068;SDS011;16894;49.456;10.644;2023-09-07T04:18:10;34.28;;;31.63;;
30068;SDS011;16894;49.456;10.644;2023-09-07T04:20:38;35.53;;;33.05;;
30068;SDS011;16894;49.456;10.644;2023-09-07T04:23:04;35.42;;;33.00;;
30068;SDS011;16894;49.456;10.644;2023-09-07T04:25:30;34.83;;;32.23;;
30068;SDS011;16894;49.456;10.644;2023-09-07T04:27:57;36.53;;;33.97;;
30068;SDS011;16894;49.456;10.644;2023-09-07T04:30:22;35.60;;;33.13;;
30068;SDS011;16894;49.456;10.644;2023-09-07T04:32:48;35.25;;;32.65;;
30068;SDS011;16894;49.456;10.644;2023-09-07T04:35:15;39.17;;;36.50;;
30068;SDS011;16894;49.456;10.644;2023-09-07T04:37:44;40.17;;;37.40;;
30068;SDS011;16894;49.456;10.644;2023-09-07T04:40:10;36.35;;;34.00;;
30068;SDS011;16894;49.456;10.644;2023-09-07T04:42:36;35.95;;;33.40;;
30068;SDS011;16894;49.456;10.644;2023-09-07T04:45:04;42.08;;;39.08;;
30068;SDS011;16894;49.456;10.644;2023-09-07T04:47:30;37.63;;;35.00;;
30068;SDS011;16894;49.456;10.644;2023-09-07T04:49:56;35.80;;;33.37;;
30068;SDS011;16894;49.456;10.644;2023-09-07T04:52:21;33.57;;;31.30;;
30068;SDS011;16894;49.456;10.644;2023-09-07T04:54:47;34.30;;;31.93;;
30068;SDS011;16894;49.456;10.644;2023-09-07T04:57:15;33.57;;;31.40;;
30068;SDS011;16894;49.456;10.644;2023-09-07T04:59:42;36.03;;;33.67;;
30068;SDS011;16894;49.456;10.644;2023-09-07T05:02:07;32.17;;;29.87;;
30068;SDS011;16894;49.456;10.644;2023-09-07T05:04:33;27.43;;;25.60;;
30068;SDS011;16894;49.456;10.644;2023-09-07T05:06:59;29.90;;;27.75;;
30068;SDS011;16894;49.456;10.644;2023-09-07T05:09:24;28.33;;;26.23;;
30068;SDS011;16894;49.456;10.644;2023-09-07T05:11:50;30.42;;;28.42;;
30068;SDS011;16894;49.456;10.644;2023-09-07T05:14:17;35.45;;;32.97;;
30068;SDS011;16894;49.456;10.644;2023-09-07T05:16:43;37.65;;;35.10;;
30068;SDS011;16894;49.456;10.644;2023-09-07T05:19:09;36.78;;;34.28;;
30068;SDS011;16894;49.456;10.644;2023-09-07T05:21:35;35.75;;;33.40;;
30068;SDS011;16894;49.456;10.644;2023-09-07T05:24:00;37.93;;;35.40;;
30068;SDS011;16894;49.456;10.644;2023-09-07T05:26:26;33.53;;;31.43;;
30068;SDS011;16894;49.456;10.644;2023-09-07T05:28:53;35.45;;;33.08;;
30068;SDS011;16894;49.456;10.644;2023-09-07T05:31:19;34.70;;;32.10;;
30068;SDS011;16894;49.456;10.644;2023-09-07T05:33:45;43.40;;;38.10;;
30068;SDS011;16894;49.456;10.644;2023-09-07T05:36:10;75.23;;;69.17;;
30068;SDS011;16894;49.456;10.644;2023-09-07T05:38:36;43.63;;;40.67;;
30068;SDS011;16894;49.456;10.644;2023-09-07T05:41:02;37.45;;;34.95;;
30068;SDS011;16894;49.456;10.644;2023-09-07T05:43:28;34.67;;;32.50;;
30068;SDS011;16894;49.456;10.644;2023-09-07T05:45:54;32.40;;;30.07;;
30068;SDS011;16894;49.456;10.644;2023-09-07T05:48:19;35.83;;;33.33;;
30068;SDS011;16894;49.456;10.644;2023-09-07T05:50:45;38.70;;;36.00;;
30068;SDS011;16894;49.456;10.644;2023-09-07T05:53:11;61.13;;;57.20;;
30068;SDS011;16894;49.456;10.644;2023-09-07T05:55:37;100.90;;;94.38;;
30068;SDS011;16894;49.456;10.644;2023-09-07T05:58:06;115.03;;;107.78;;
30068;SDS011;16894;49.456;10.644;2023-09-07T06:00:34;116.88;;;109.32;;
30068;SDS011;16894;49.456;10.644;2023-09-07T06:03:00;121.30;;;113.47;;
30068;SDS011;16894;49.456;10.644;2023-09-07T06:05:27;144.68;;;135.65;;
30068;SDS011;16894;49.456;10.644;2023-09-07T06:07:53;162.05;;;151.82;;
30068;SDS011;16894;49.456;10.644;2023-09-07T06:10:18;183.43;;;172.33;;
30068;SDS011;16894;49.456;10.644;2023-09-07T06:12:44;169.68;;;159.32;;
30068;SDS011;16894;49.456;10.644;2023-09-07T06:15:10;173.68;;;162.85;;
30068;SDS011;16894;49.456;10.644;2023-09-07T06:17:36;170.40;;;159.85;;
30068;SDS011;16894;49.456;10.644;2023-09-07T06:20:02;166.67;;;156.23;;
30068;SDS011;16894;49.456;10.644;2023-09-07T06:22:28;232.52;;;210.48;;
30068;SDS011;16894;49.456;10.644;2023-09-07T06:24:54;198.37;;;185.00;;
30068;SDS011;16894;49.456;10.644;2023-09-07T06:27:19;151.70;;;142.17;;
30068;SDS011;16894;49.456;10.644;2023-09-07T06:29:45;120.90;;;113.03;;
30068;SDS011;16894;49.456;10.644;2023-09-07T06:32:11;134.32;;;125.32;;
30068;SDS011;16894;49.456;10.644;2023-09-07T06:34:37;168.68;;;157.73;;
30068;SDS011;16894;49.456;10.644;2023-09-07T06:37:02;217.70;;;204.40;;
30068;SDS011;16894;49.456;10.644;2023-09-07T06:39:28;224.63;;;210.77;;
30068;SDS011;16894;49.456;10.644;2023-09-07T06:41:54;219.77;;;206.30;;
30068;SDS011;16894;49.456;10.644;2023-09-07T06:44:19;218.47;;;205.10;;
30068;SDS011;16894;49.456;10.644;2023-09-07T06:46:45;216.23;;;203.07;;
30068;SDS011;16894;49.456;10.644;2023-09-07T06:49:11;201.90;;;189.50;;
30068;SDS011;16894;49.456;10.644;2023-09-07T06:51:37;198.65;;;185.52;;
30068;SDS011;16894;49.456;10.644;2023-09-07T06:54:03;182.07;;;170.70;;
30068;SDS011;16894;49.456;10.644;2023-09-07T06:56:29;182.50;;;171.23;;
30068;SDS011;16894;49.456;10.644;2023-09-07T06:58:57;197.88;;;185.35;;
30068;SDS011;16894;49.456;10.644;2023-09-07T07:01:22;162.30;;;151.80;;
30068;SDS011;16894;49.456;10.644;2023-09-07T07:03:49;160.85;;;150.60;;
30068;SDS011;16894;49.456;10.644;2023-09-07T07:06:14;173.83;;;162.63;;
30068;SDS011;16894;49.456;10.644;2023-09-07T07:08:40;176.03;;;164.93;;
30068;SDS011;16894;49.456;10.644;2023-09-07T07:11:05;209.23;;;196.07;;
30068;SDS011;16894;49.456;10.644;2023-09-07T07:13:31;225.03;;;210.57;;
30068;SDS011;16894;49.456;10.644;2023-09-07T07:15:57;228.77;;;214.50;;
30068;SDS011;16894;49.456;10.644;2023-09-07T07:18:22;243.97;;;228.73;;
30068;SDS011;16894;49.456;10.644;2023-09-07T07:20:48;188.67;;;177.10;;
30068;SDS011;16894;49.456;10.644;2023-09-07T07:23:15;189.35;;;176.63;;
30068;SDS011;16894;49.456;10.644;2023-09-07T07:25:41;245.35;;;230.07;;
30068;SDS011;16894;49.456;10.644;2023-09-07T07:28:07;241.67;;;226.03;;
30068;SDS011;16894;49.456;10.644;2023-09-07T07:30:34;169.68;;;159.23;;
30068;SDS011;16894;49.456;10.644;2023-09-07T07:33:01;77.53;;;71.75;;
30068;SDS011;16894;49.456;10.644;2023-09-07T07:35:28;73.75;;;68.05;;
30068;SDS011;16894;49.456;10.644;2023-09-07T07:37:56;208.43;;;194.40;;
30068;SDS011;16894;49.456;10.644;2023-09-07T07:40:22;54.50;;;50.72;;
30068;SDS011;16894;49.456;10.644;2023-09-07T07:42:48;74.60;;;67.83;;
30068;SDS011;16894;49.456;10.644;2023-09-07T07:45:16;67.32;;;62.67;;
30068;SDS011;16894;49.456;10.644;2023-09-07T07:47:44;57.00;;;52.63;;
30068;SDS011;16894;49.456;10.644;2023-09-07T07:50:10;50.30;;;46.70;;
30068;SDS011;16894;49.456;10.644;2023-09-07T07:52:36;43.78;;;40.20;;
30068;SDS011;16894;49.456;10.644;2023-09-07T07:55:02;43.90;;;40.30;;
30068;SDS011;16894;49.456;10.644;2023-09-07T07:57:28;36.00;;;33.33;;
30068;SDS011;16894;49.456;10.644;2023-09-07T07:59:58;36.50;;;33.95;;
30068;SDS011;16894;49.456;10.644;2023-09-07T08:02:23;35.38;;;32.45;;
30068;SDS011;16894;49.456;10.644;2023-09-07T08:04:49;42.83;;;38.90;;
30068;SDS011;16894;49.456;10.644;2023-09-07T08:07:15;41.03;;;38.13;;
30068;SDS011;16894;49.456;10.644;2023-09-07T08:09:41;79.78;;;74.03;;
30068;SDS011;16894;49.456;10.644;2023-09-07T08:12:07;149.27;;;139.60;;
30068;SDS011;16894;49.456;10.644;2023-09-07T08:14:33;159.75;;;149.60;;
30068;SDS011;16894;49.456;10.644;2023-09-07T08:16:59;306.00;;;286.77;;
30068;SDS011;16894;49.456;10.644;2023-09-07T08:19:26;514.88;;;480.45;;
30068;SDS011;16894;49.456;10.644;2023-09-07T08:21:56;849.80;;;780.90;;
30068;SDS011;16894;49.456;10.644;2023-09-07T08:24:24;1195.78;;;999.90;;
30068;SDS011;16894;49.456;10.644;2023-09-07T08:26:49;1984.65;;;999.90;;
30068;SDS011;16894;49.456;10.644;2023-09-07T08:31:42;1999.90;;;999.90;;
30068;SDS011;16894;49.456;10.644;2023-09-07T08:34:10;1999.90;;;999.90;;
30068;SDS011;16894;49.456;10.644;2023-09-07T08:36:36;1999.90;;;999.90;;
30068;SDS011;16894;49.456;10.644;2023-09-07T08:41:31;1999.90;;;999.90;;
30068;SDS011;16894;49.456;10.644;2023-09-07T08:44:02;1999.90;;;999.90;;
30068;SDS011;16894;49.456;10.644;2023-09-07T08:46:31;1999.90;;;999.90;;
30068;SDS011;16894;49.456;10.644;2023-09-07T08:48:59;1999.90;;;999.90;;
30068;SDS011;16894;49.456;10.644;2023-09-07T08:51:26;1999.90;;;999.90;;
30068;SDS011;16894;49.456;10.644;2023-09-07T08:53:56;1999.90;;;999.90;;
30068;SDS011;16894;49.456;10.644;2023-09-07T08:58:48;1999.90;;;999.90;;
30068;SDS011;16894;49.456;10.644;2023-09-07T09:01:14;1999.90;;;999.90;;
30068;SDS011;16894;49.456;10.644;2023-09-07T09:03:43;1999.90;;;999.90;;
30068;SDS011;16894;49.456;10.644;2023-09-07T09:06:11;1999.90;;;999.90;;
30068;SDS011;16894;49.456;10.644;2023-09-07T09:08:45;1999.90;;;999.90;;
30068;SDS011;16894;49.456;10.644;2023-09-07T09:11:14;1999.90;;;999.90;;
30068;SDS011;16894;49.456;10.644;2023-09-07T09:13:41;1999.90;;;999.90;;
30068;SDS011;16894;49.456;10.644;2023-09-07T09:16:07;1999.90;;;999.90;;
30068;SDS011;16894;49.456;10.644;2023-09-07T09:18:33;1999.90;;;999.90;;
30068;SDS011;16894;49.456;10.644;2023-09-07T09:20:58;1999.90;;;999.90;;
30068;SDS011;16894;49.456;10.644;2023-09-07T09:31:00;1999.90;;;999.90;;
30068;SDS011;16894;49.456;10.644;2023-09-07T09:33:27;1999.90;;;999.90;;
30068;SDS011;16894;49.456;10.644;2023-09-07T09:35:56;1999.90;;;999.90;;
30068;SDS011;16894;49.456;10.644;2023-09-07T09:38:22;1999.90;;;999.90;;
30068;SDS011;16894;49.456;10.644;2023-09-07T09:40:49;1999.90;;;999.90;;
30068;SDS011;16894;49.456;10.644;2023-09-07T09:45:41;1999.90;;;999.90;;
30068;SDS011;16894;49.456;10.644;2023-09-07T09:50:33;1999.90;;;999.90;;
30068;SDS011;16894;49.456;10.644;2023-09-07T09:53:03;1999.90;;;999.90;;
30068;SDS011;16894;49.456;10.644;2023-09-07T09:55:36;1999.90;;;999.90;;
30068;SDS011;16894;49.456;10.644;2023-09-07T09:58:01;1999.90;;;999.90;;
30068;SDS011;16894;49.456;10.644;2023-09-07T10:00:27;1999.90;;;999.90;;
30068;SDS011;16894;49.456;10.644;2023-09-07T10:02:59;1999.90;;;999.90;;
30068;SDS011;16894;49.456;10.644;2023-09-07T10:05:29;1999.90;;;999.90;;
30068;SDS011;16894;49.456;10.644;2023-09-07T10:08:00;1999.90;;;999.90;;
30068;SDS011;16894;49.456;10.644;2023-09-07T10:10:34;1999.90;;;999.90;;
30068;SDS011;16894;49.456;10.644;2023-09-07T10:13:01;1999.90;;;999.90;;
30068;SDS011;16894;49.456;10.644;2023-09-07T10:15:29;1999.90;;;999.90;;
30068;SDS011;16894;49.456;10.644;2023-09-07T10:23:44;1999.90;;;999.90;;
30068;SDS011;16894;49.456;10.644;2023-09-07T10:26:11;1999.90;;;999.90;;
30068;SDS011;16894;49.456;10.644;2023-09-07T10:28:37;1999.90;;;999.90;;
30068;SDS011;16894;49.456;10.644;2023-09-07T10:33:34;1999.90;;;999.90;;
30068;SDS011;16894;49.456;10.644;2023-09-07T10:36:01;1999.90;;;999.90;;
30068;SDS011;16894;49.456;10.644;2023-09-07T10:38:29;1999.90;;;999.90;;
30068;SDS011;16894;49.456;10.644;2023-09-07T10:41:00;1999.90;;;999.90;;
30068;SDS011;16894;49.456;10.644;2023-09-07T10:43:28;1999.90;;;999.90;;
30068;SDS011;16894;49.456;10.644;2023-09-07T10:45:55;1999.90;;;999.90;;
30068;SDS011;16894;49.456;10.644;2023-09-07T10:48:25;1999.90;;;999.90;;
30068;SDS011;16894;49.456;10.644;2023-09-07T10:50:51;1999.90;;;999.90;;
30068;SDS011;16894;49.456;10.644;2023-09-07T10:53:27;1999.90;;;999.90;;
30068;SDS011;16894;49.456;10.644;2023-09-07T10:55:56;1999.90;;;999.90;;
30068;SDS011;16894;49.456;10.644;2023-09-07T10:58:30;1999.90;;;999.90;;
30068;SDS011;16894;49.456;10.644;2023-09-07T11:00:57;1999.90;;;999.90;;
30068;SDS011;16894;49.456;10.644;2023-09-07T11:03:26;1999.90;;;999.90;;
30068;SDS011;16894;49.456;10.644;2023-09-07T11:06:26;1999.90;;;999.90;;
30068;SDS011;16894;49.456;10.644;2023-09-07T11:08:46;1999.90;;;999.90;;
30068;SDS011;16894;49.456;10.644;2023-09-07T11:11:12;1999.90;;;999.90;;
30068;SDS011;16894;49.456;10.644;2023-09-07T11:13:38;1999.90;;;999.90;;
30068;SDS011;16894;49.456;10.644;2023-09-07T11:16:06;1999.90;;;999.90;;
30068;SDS011;16894;49.456;10.644;2023-09-07T11:18:33;1999.90;;;999.90;;
30068;SDS011;16894;49.456;10.644;2023-09-07T11:21:02;1999.90;;;999.90;;
30068;SDS011;16894;49.456;10.644;2023-09-07T11:23:29;1999.90;;;999.90;;
30068;SDS011;16894;49.456;10.644;2023-09-07T11:26:06;1999.90;;;999.90;;
30068;SDS011;16894;49.456;10.644;2023-09-07T11:28:34;1999.90;;;999.90;;
30068;SDS011;16894;49.456;10.644;2023-09-07T11:31:00;1999.90;;;999.90;;
30068;SDS011;16894;49.456;10.644;2023-09-07T11:33:26;1999.90;;;999.90;;
30068;SDS011;16894;49.456;10.644;2023-09-07T11:35:56;1999.90;;;999.90;;
30068;SDS011;16894;49.456;10.644;2023-09-07T11:38:21;1999.90;;;999.90;;
30068;SDS011;16894;49.456;10.644;2023-09-07T11:40:47;1999.90;;;999.90;;
30068;SDS011;16894;49.456;10.644;2023-09-07T11:43:13;1999.90;;;999.90;;
30068;SDS011;16894;49.456;10.644;2023-09-07T11:45:41;1999.90;;;999.90;;
30068;SDS011;16894;49.456;10.644;2023-09-07T11:48:07;1999.90;;;999.90;;
30068;SDS011;16894;49.456;10.644;2023-09-07T11:50:37;1999.90;;;999.90;;
30068;SDS011;16894;49.456;10.644;2023-09-07T11:53:04;1999.90;;;999.90;;
30068;SDS011;16894;49.456;10.644;2023-09-07T11:55:30;1999.90;;;999.90;;
30068;SDS011;16894;49.456;10.644;2023-09-07T11:57:56;1999.90;;;999.90;;
30068;SDS011;16894;49.456;10.644;2023-09-07T12:00:22;1999.90;;;999.90;;
30068;SDS011;16894;49.456;10.644;2023-09-07T12:02:48;1999.90;;;999.90;;
30068;SDS011;16894;49.456;10.644;2023-09-07T12:05:14;1999.90;;;999.90;;
30068;SDS011;16894;49.456;10.644;2023-09-07T12:07:41;1999.90;;;999.90;;
30068;SDS011;16894;49.456;10.644;2023-09-07T12:10:10;1999.90;;;999.90;;
30068;SDS011;16894;49.456;10.644;2023-09-07T12:12:41;1999.90;;;999.90;;
30068;SDS011;16894;49.456;10.644;2023-09-07T12:15:08;1999.90;;;999.90;;
30068;SDS011;16894;49.456;10.644;2023-09-07T12:17:38;1999.90;;;999.90;;
30068;SDS011;16894;49.456;10.644;2023-09-07T12:20:04;1999.90;;;999.90;;
30068;SDS011;16894;49.456;10.644;2023-09-07T12:22:34;1999.90;;;999.90;;
30068;SDS011;16894;49.456;10.644;2023-09-07T12:25:01;1999.90;;;999.90;;
30068;SDS011;16894;49.456;10.644;2023-09-07T12:27:27;1999.90;;;999.90;;
30068;SDS011;16894;49.456;10.644;2023-09-07T12:29:53;1999.90;;;999.90;;
30068;SDS011;16894;49.456;10.644;2023-09-07T12:32:18;1999.90;;;999.90;;
30068;SDS011;16894;49.456;10.644;2023-09-07T12:34:44;1999.90;;;999.90;;
30068;SDS011;16894;49.456;10.644;2023-09-07T12:37:09;1999.90;;;999.90;;
30068;SDS011;16894;49.456;10.644;2023-09-07T12:39:35;1999.90;;;999.90;;
30068;SDS011;16894;49.456;10.644;2023-09-07T12:42:01;1999.90;;;999.90;;
30068;SDS011;16894;49.456;10.644;2023-09-07T12:44:27;1999.90;;;999.90;;
30068;SDS011;16894;49.456;10.644;2023-09-07T12:46:53;1999.90;;;999.90;;
30068;SDS011;16894;49.456;10.644;2023-09-07T12:49:18;1999.90;;;999.90;;
30068;SDS011;16894;49.456;10.644;2023-09-07T12:51:47;1999.90;;;999.90;;
30068;SDS011;16894;49.456;10.644;2023-09-07T12:54:13;1999.90;;;999.90;;
30068;SDS011;16894;49.456;10.644;2023-09-07T12:56:38;1999.90;;;999.90;;
30068;SDS011;16894;49.456;10.644;2023-09-07T12:59:04;1999.90;;;999.90;;
30068;SDS011;16894;49.456;10.644;2023-09-07T13:01:30;1999.90;;;999.90;;
30068;SDS011;16894;49.456;10.644;2023-09-07T13:03:56;1999.90;;;999.90;;
30068;SDS011;16894;49.456;10.644;2023-09-07T13:06:21;1999.90;;;999.90;;
30068;SDS011;16894;49.456;10.644;2023-09-07T13:08:47;1999.90;;;999.90;;
30068;SDS011;16894;49.456;10.644;2023-09-07T13:11:14;1999.90;;;999.90;;
30068;SDS011;16894;49.456;10.644;2023-09-07T13:13:40;1999.90;;;999.90;;
30068;SDS011;16894;49.456;10.644;2023-09-07T13:16:06;1999.90;;;999.90;;
30068;SDS011;16894;49.456;10.644;2023-09-07T13:18:31;1999.90;;;999.90;;
30068;SDS011;16894;49.456;10.644;2023-09-07T13:20:57;1999.90;;;999.90;;
30068;SDS011;16894;49.456;10.644;2023-09-07T13:23:27;1999.90;;;999.90;;
30068;SDS011;16894;49.456;10.644;2023-09-07T13:25:56;1999.90;;;999.90;;
30068;SDS011;16894;49.456;10.644;2023-09-07T13:28:22;1999.90;;;999.90;;
30068;SDS011;16894;49.456;10.644;2023-09-07T13:30:49;1999.90;;;999.90;;
30068;SDS011;16894;49.456;10.644;2023-09-07T13:33:15;1999.90;;;999.90;;
30068;SDS011;16894;49.456;10.644;2023-09-07T13:35:41;1999.90;;;999.90;;
30068;SDS011;16894;49.456;10.644;2023-09-07T13:38:07;1999.90;;;999.90;;
30068;SDS011;16894;49.456;10.644;2023-09-07T13:40:32;1999.90;;;999.90;;
30068;SDS011;16894;49.456;10.644;2023-09-07T13:42:58;1999.90;;;999.90;;
30068;SDS011;16894;49.456;10.644;2023-09-07T13:45:24;1999.90;;;999.90;;
30068;SDS011;16894;49.456;10.644;2023-09-07T13:47:50;1999.90;;;999.90;;
30068;SDS011;16894;49.456;10.644;2023-09-07T13:50:15;1999.90;;;999.90;;
30068;SDS011;16894;49.456;10.644;2023-09-07T13:52:41;1999.90;;;999.90;;
30068;SDS011;16894;49.456;10.644;2023-09-07T13:55:07;1999.90;;;999.90;;
30068;SDS011;16894;49.456;10.644;2023-09-07T13:57:33;1999.90;;;999.90;;
30068;SDS011;16894;49.456;10.644;2023-09-07T13:59:59;1999.90;;;999.90;;
30068;SDS011;16894;49.456;10.644;2023-09-07T14:02:25;1999.90;;;999.90;;
30068;SDS011;16894;49.456;10.644;2023-09-07T14:04:51;1999.90;;;999.90;;
30068;SDS011;16894;49.456;10.644;2023-09-07T14:07:17;1999.90;;;999.90;;
30068;SDS011;16894;49.456;10.644;2023-09-07T14:09:43;1999.90;;;999.90;;
30068;SDS011;16894;49.456;10.644;2023-09-07T14:12:09;1999.90;;;999.90;;
30068;SDS011;16894;49.456;10.644;2023-09-07T14:14:35;1999.90;;;999.90;;
30068;SDS011;16894;49.456;10.644;2023-09-07T14:17:02;1999.90;;;999.90;;
30068;SDS011;16894;49.456;10.644;2023-09-07T14:19:28;1999.90;;;999.90;;
30068;SDS011;16894;49.456;10.644;2023-09-07T14:21:56;1999.90;;;999.90;;
30068;SDS011;16894;49.456;10.644;2023-09-07T14:24:24;1999.90;;;999.90;;